sensor_id;sensor_type;location;lat;lon;timestamp;pressure;altitude;pressure_sealevel;temperature;humidity
45872;BME280;32333;55.844;-3.210;2022-07-12T00:01:48;99735.37;;;18.78;90.20
45872;BME280;32333;55.844;-3.210;2022-07-12T00:04:16;99725.40;;;18.61;92.32
45872;BME280;32333;55.844;-3.210;2022-07-12T00:06:43;99724.80;;;18.81;89.19
45872;BME280;32333;55.844;-3.210;2022-07-12T00:09:11;99722.63;;;18.83;89.49
45872;BME280;32333;55.844;-3.210;2022-07-12T00:11:39;99719.88;;;18.62;89.25
45872;BME280;32333;55.844;-3.210;2022-07-12T00:14:36;99719.43;;;18.55;91.90
45872;BME280;32333;55.844;-3.210;2022-07-12T00:17:04;99725.91;;;18.32;91.44
45872;BME280;32333;55.844;-3.210;2022-07-12T00:19:32;99713.77;;;16.22;94.62
45872;BME280;32333;55.844;-3.210;2022-07-12T00:22:00;99709.95;;;17.61;84.00
45872;BME280;32333;55.844;-3.210;2022-07-12T00:24:27;99705.09;;;17.60;81.66
45872;BME280;32333;55.844;-3.210;2022-07-12T00:26:54;99708.59;;;19.43;78.10
45872;BME280;32333;55.844;-3.210;2022-07-12T00:29:23;99708.90;;;19.44;80.88
45872;BME280;32333;55.844;-3.210;2022-07-12T00:31:50;99708.78;;;17.79;90.87
45872;BME280;32333;55.844;-3.210;2022-07-12T00:34:17;99708.40;;;18.85;88.84
45872;BME280;32333;55.844;-3.210;2022-07-12T00:36:45;99700.56;;;18.39;89.63
45872;BME280;32333;55.844;-3.210;2022-07-12T00:39:12;99694.57;;;18.27;90.56
45872;BME280;32333;55.844;-3.210;2022-07-12T00:41:39;99689.29;;;18.06;93.48
45872;BME280;32333;55.844;-3.210;2022-07-12T00:44:35;99683.59;;;18.24;93.69
45872;BME280;32333;55.844;-3.210;2022-07-12T00:47:03;99680.83;;;17.56;95.51
45872;BME280;32333;55.844;-3.210;2022-07-12T00:49:33;99682.05;;;17.44;97.95
45872;BME280;32333;55.844;-3.210;2022-07-12T00:52:01;99684.78;;;17.79;95.64
45872;BME280;32333;55.844;-3.210;2022-07-12T00:54:29;99683.14;;;17.95;93.22
45872;BME280;32333;55.844;-3.210;2022-07-12T00:56:58;99673.88;;;18.84;92.24
45872;BME280;32333;55.844;-3.210;2022-07-12T00:59:27;99677.32;;;18.15;95.12
45872;BME280;32333;55.844;-3.210;2022-07-12T01:01:54;99663.38;;;16.71;100.00
45872;BME280;32333;55.844;-3.210;2022-07-12T01:04:22;99660.59;;;16.98;100.00
45872;BME280;32333;55.844;-3.210;2022-07-12T01:06:51;99652.09;;;17.60;97.60
45872;BME280;32333;55.844;-3.210;2022-07-12T01:09:19;99643.71;;;18.29;94.49
45872;BME280;32333;55.844;-3.210;2022-07-12T01:11:46;99641.80;;;18.49;91.53
45872;BME280;32333;55.844;-3.210;2022-07-12T01:14:36;99648.61;;;17.92;93.01
45872;BME280;32333;55.844;-3.210;2022-07-12T01:17:04;99648.16;;;18.41;92.85
45872;BME280;32333;55.844;-3.210;2022-07-12T01:19:32;99646.50;;;17.66;94.83
45872;BME280;32333;55.844;-3.210;2022-07-12T01:22:02;99652.68;;;18.06;95.47
45872;BME280;32333;55.844;-3.210;2022-07-12T01:24:29;99656.54;;;17.54;99.07
45872;BME280;32333;55.844;-3.210;2022-07-12T01:26:58;99664.79;;;18.13;97.83
45872;BME280;32333;55.844;-3.210;2022-07-12T01:29:28;99659.85;;;17.42;99.15
45872;BME280;32333;55.844;-3.210;2022-07-12T01:32:00;99648.62;;;18.30;95.43
45872;BME280;32333;55.844;-3.210;2022-07-12T01:34:27;99657.92;;;18.56;93.56
45872;BME280;32333;55.844;-3.210;2022-07-12T01:37:06;99663.72;;;17.46;99.99
45872;BME280;32333;55.844;-3.210;2022-07-12T01:39:34;99667.74;;;17.36;100.00
45872;BME280;32333;55.844;-3.210;2022-07-12T01:42:01;99666.93;;;17.62;100.00
45872;BME280;32333;55.844;-3.210;2022-07-12T01:44:36;99667.78;;;16.84;100.00
45872;BME280;32333;55.844;-3.210;2022-07-12T01:47:04;99667.36;;;16.50;100.00
45872;BME280;32333;55.844;-3.210;2022-07-12T01:49:31;99651.53;;;17.05;100.00
45872;BME280;32333;55.844;-3.210;2022-07-12T01:51:59;99635.70;;;17.84;100.00
45872;BME280;32333;55.844;-3.210;2022-07-12T01:54:26;99641.92;;;17.20;100.00
45872;BME280;32333;55.844;-3.210;2022-07-12T01:56:54;99646.70;;;17.65;100.00
45872;BME280;32333;55.844;-3.210;2022-07-12T01:59:22;99661.90;;;16.87;100.00
45872;BME280;32333;55.844;-3.210;2022-07-12T02:01:50;99659.37;;;17.87;100.00
45872;BME280;32333;55.844;-3.210;2022-07-12T02:04:18;99662.08;;;16.98;100.00
45872;BME280;32333;55.844;-3.210;2022-07-12T02:06:45;99662.53;;;17.58;100.00
45872;BME280;32333;55.844;-3.210;2022-07-12T02:09:14;99660.49;;;18.43;100.00
45872;BME280;32333;55.844;-3.210;2022-07-12T02:11:41;99660.37;;;17.38;100.00
45872;BME280;32333;55.844;-3.210;2022-07-12T02:14:35;99671.37;;;17.35;100.00
45872;BME280;32333;55.844;-3.210;2022-07-12T02:17:03;99670.10;;;17.15;100.00
45872;BME280;32333;55.844;-3.210;2022-07-12T02:19:31;99684.45;;;16.72;100.00
45872;BME280;32333;55.844;-3.210;2022-07-12T02:21:59;99676.24;;;16.92;100.00
45872;BME280;32333;55.844;-3.210;2022-07-12T02:24:26;99668.64;;;17.43;100.00
45872;BME280;32333;55.844;-3.210;2022-07-12T02:26:53;99664.11;;;16.98;100.00
45872;BME280;32333;55.844;-3.210;2022-07-12T02:29:22;99659.50;;;16.75;100.00
45872;BME280;32333;55.844;-3.210;2022-07-12T02:31:54;99653.25;;;17.10;100.00
45872;BME280;32333;55.844;-3.210;2022-07-12T02:34:21;99654.30;;;17.73;100.00
45872;BME280;32333;55.844;-3.210;2022-07-12T02:36:48;99651.26;;;18.08;100.00
45872;BME280;32333;55.844;-3.210;2022-07-12T02:39:16;99651.75;;;16.37;100.00
45872;BME280;32333;55.844;-3.210;2022-07-12T02:41:44;99652.74;;;16.49;100.00
45872;BME280;32333;55.844;-3.210;2022-07-12T02:44:37;99648.16;;;16.82;100.00
45872;BME280;32333;55.844;-3.210;2022-07-12T02:47:04;99646.38;;;17.69;100.00
45872;BME280;32333;55.844;-3.210;2022-07-12T02:49:31;99652.61;;;17.82;100.00
45872;BME280;32333;55.844;-3.210;2022-07-12T02:51:59;99660.77;;;17.43;100.00
45872;BME280;32333;55.844;-3.210;2022-07-12T02:54:26;99663.10;;;17.15;100.00
45872;BME280;32333;55.844;-3.210;2022-07-12T02:56:53;99647.46;;;17.06;100.00
45872;BME280;32333;55.844;-3.210;2022-07-12T02:59:21;99642.76;;;17.44;100.00
45872;BME280;32333;55.844;-3.210;2022-07-12T03:01:48;99634.35;;;17.52;100.00
45872;BME280;32333;55.844;-3.210;2022-07-12T03:04:15;99632.70;;;17.08;100.00
45872;BME280;32333;55.844;-3.210;2022-07-12T03:06:42;99637.93;;;16.62;100.00
45872;BME280;32333;55.844;-3.210;2022-07-12T03:09:10;99639.23;;;15.89;100.00
45872;BME280;32333;55.844;-3.210;2022-07-12T03:11:38;99635.61;;;16.14;100.00
45872;BME280;32333;55.844;-3.210;2022-07-12T03:14:49;99629.34;;;16.52;100.00
45872;BME280;32333;55.844;-3.210;2022-07-12T03:17:16;99622.18;;;16.88;100.00
45872;BME280;32333;55.844;-3.210;2022-07-12T03:19:44;99616.84;;;16.78;100.00
45872;BME280;32333;55.844;-3.210;2022-07-12T03:22:11;99613.09;;;16.50;100.00
45872;BME280;32333;55.844;-3.210;2022-07-12T03:24:38;99615.81;;;16.72;100.00
45872;BME280;32333;55.844;-3.210;2022-07-12T03:27:06;99617.90;;;17.50;100.00
45872;BME280;32333;55.844;-3.210;2022-07-12T03:34:01;99612.33;;;17.69;100.00
45872;BME280;32333;55.844;-3.210;2022-07-12T03:36:28;99614.07;;;17.51;100.00
45872;BME280;32333;55.844;-3.210;2022-07-12T03:38:55;99612.04;;;17.54;100.00
45872;BME280;32333;55.844;-3.210;2022-07-12T03:41:22;99609.70;;;17.38;100.00
45872;BME280;32333;55.844;-3.210;2022-07-12T03:44:36;99623.21;;;17.01;100.00
45872;BME280;32333;55.844;-3.210;2022-07-12T03:47:03;99625.07;;;17.26;100.00
45872;BME280;32333;55.844;-3.210;2022-07-12T03:49:31;99624.27;;;17.42;100.00
45872;BME280;32333;55.844;-3.210;2022-07-12T03:51:59;99626.64;;;17.35;100.00
45872;BME280;32333;55.844;-3.210;2022-07-12T03:54:26;99625.58;;;17.94;100.00
45872;BME280;32333;55.844;-3.210;2022-07-12T03:56:53;99627.54;;;17.27;100.00
45872;BME280;32333;55.844;-3.210;2022-07-12T03:59:21;99628.38;;;17.81;100.00
45872;BME280;32333;55.844;-3.210;2022-07-12T04:01:49;99628.87;;;17.81;100.00
45872;BME280;32333;55.844;-3.210;2022-07-12T04:04:16;99625.56;;;17.77;100.00
45872;BME280;32333;55.844;-3.210;2022-07-12T04:06:44;99621.92;;;18.28;100.00
45872;BME280;32333;55.844;-3.210;2022-07-12T04:09:12;99619.46;;;18.33;100.00
45872;BME280;32333;55.844;-3.210;2022-07-12T04:11:39;99621.96;;;17.99;100.00
45872;BME280;32333;55.844;-3.210;2022-07-12T04:14:36;99614.87;;;17.87;100.00
45872;BME280;32333;55.844;-3.210;2022-07-12T04:17:04;99619.79;;;18.26;100.00
45872;BME280;32333;55.844;-3.210;2022-07-12T04:19:32;99616.50;;;17.58;100.00
45872;BME280;32333;55.844;-3.210;2022-07-12T04:22:00;99623.98;;;18.26;100.00
45872;BME280;32333;55.844;-3.210;2022-07-12T04:24:27;99625.27;;;17.48;100.00
45872;BME280;32333;55.844;-3.210;2022-07-12T04:26:54;99622.00;;;17.79;100.00
45872;BME280;32333;55.844;-3.210;2022-07-12T04:29:23;99632.30;;;18.35;100.00
45872;BME280;32333;55.844;-3.210;2022-07-12T04:31:50;99635.03;;;18.10;100.00
45872;BME280;32333;55.844;-3.210;2022-07-12T04:34:17;99621.57;;;17.79;100.00
45872;BME280;32333;55.844;-3.210;2022-07-12T04:36:45;99618.68;;;18.03;100.00
45872;BME280;32333;55.844;-3.210;2022-07-12T04:39:13;99615.77;;;18.11;100.00
45872;BME280;32333;55.844;-3.210;2022-07-12T04:41:41;99611.80;;;17.30;100.00
45872;BME280;32333;55.844;-3.210;2022-07-12T04:44:35;99614.07;;;18.88;100.00
45872;BME280;32333;55.844;-3.210;2022-07-12T04:47:03;99614.38;;;18.64;100.00
45872;BME280;32333;55.844;-3.210;2022-07-12T04:49:32;99620.07;;;19.20;100.00
45872;BME280;32333;55.844;-3.210;2022-07-12T04:52:00;99632.61;;;18.56;100.00
45872;BME280;32333;55.844;-3.210;2022-07-12T04:54:28;99632.05;;;17.68;100.00
45872;BME280;32333;55.844;-3.210;2022-07-12T04:56:55;99626.10;;;18.09;100.00
45872;BME280;32333;55.844;-3.210;2022-07-12T04:59:23;99625.90;;;18.27;100.00
45872;BME280;32333;55.844;-3.210;2022-07-12T05:01:51;99619.99;;;17.70;100.00
45872;BME280;32333;55.844;-3.210;2022-07-12T05:04:18;99618.55;;;17.30;100.00
45872;BME280;32333;55.844;-3.210;2022-07-12T05:06:47;99627.96;;;18.49;100.00
45872;BME280;32333;55.844;-3.210;2022-07-12T05:09:15;99637.37;;;18.18;100.00
45872;BME280;32333;55.844;-3.210;2022-07-12T05:11:43;99631.50;;;17.63;100.00
45872;BME280;32333;55.844;-3.210;2022-07-12T05:14:35;99635.12;;;18.17;100.00
45872;BME280;32333;55.844;-3.210;2022-07-12T05:17:03;99639.31;;;18.01;100.00
45872;BME280;32333;55.844;-3.210;2022-07-12T05:19:31;99636.73;;;17.65;100.00
45872;BME280;32333;55.844;-3.210;2022-07-12T05:21:58;99638.82;;;18.38;100.00
45872;BME280;32333;55.844;-3.210;2022-07-12T05:24:26;99635.98;;;18.49;100.00
45872;BME280;32333;55.844;-3.210;2022-07-12T05:26:54;99633.65;;;18.35;100.00
45872;BME280;32333;55.844;-3.210;2022-07-12T05:29:22;99632.49;;;18.09;100.00
45872;BME280;32333;55.844;-3.210;2022-07-12T05:31:49;99626.79;;;18.19;100.00
45872;BME280;32333;55.844;-3.210;2022-07-12T05:34:18;99618.54;;;18.27;100.00
45872;BME280;32333;55.844;-3.210;2022-07-12T05:36:45;99618.48;;;17.56;100.00
45872;BME280;32333;55.844;-3.210;2022-07-12T05:39:13;99609.44;;;19.38;97.42
45872;BME280;32333;55.844;-3.210;2022-07-12T05:41:40;99608.43;;;19.07;96.79
45872;BME280;32333;55.844;-3.210;2022-07-12T05:44:37;99612.66;;;19.47;93.16
45872;BME280;32333;55.844;-3.210;2022-07-12T05:47:04;99613.43;;;18.87;92.82
45872;BME280;32333;55.844;-3.210;2022-07-12T05:49:31;99620.81;;;18.27;98.96
45872;BME280;32333;55.844;-3.210;2022-07-12T05:51:59;99620.17;;;17.51;100.00
45872;BME280;32333;55.844;-3.210;2022-07-12T05:54:27;99625.83;;;18.70;99.40
45872;BME280;32333;55.844;-3.210;2022-07-12T05:56:54;99631.51;;;17.82;100.00
45872;BME280;32333;55.844;-3.210;2022-07-12T05:59:22;99631.76;;;17.80;100.00
45872;BME280;32333;55.844;-3.210;2022-07-12T06:01:49;99637.66;;;17.04;100.00
45872;BME280;32333;55.844;-3.210;2022-07-12T06:04:17;99645.56;;;18.48;100.00
45872;BME280;32333;55.844;-3.210;2022-07-12T06:06:46;99643.90;;;17.11;100.00
45872;BME280;32333;55.844;-3.210;2022-07-12T06:09:15;99643.87;;;17.26;100.00
45872;BME280;32333;55.844;-3.210;2022-07-12T06:11:42;99650.19;;;17.42;100.00
45872;BME280;32333;55.844;-3.210;2022-07-12T06:14:36;99647.59;;;17.35;100.00
45872;BME280;32333;55.844;-3.210;2022-07-12T06:17:04;99649.18;;;17.42;100.00
45872;BME280;32333;55.844;-3.210;2022-07-12T06:19:31;99649.23;;;17.39;100.00
45872;BME280;32333;55.844;-3.210;2022-07-12T06:21:58;99649.29;;;17.45;100.00
45872;BME280;32333;55.844;-3.210;2022-07-12T06:24:25;99651.85;;;17.22;100.00
45872;BME280;32333;55.844;-3.210;2022-07-12T06:26:53;99656.03;;;17.13;100.00
45872;BME280;32333;55.844;-3.210;2022-07-12T06:29:21;99665.15;;;16.83;100.00
45872;BME280;32333;55.844;-3.210;2022-07-12T06:31:48;99666.64;;;16.72;100.00
45872;BME280;32333;55.844;-3.210;2022-07-12T06:34:15;99667.01;;;16.28;100.00
45872;BME280;32333;55.844;-3.210;2022-07-12T06:36:42;99680.26;;;16.66;100.00
45872;BME280;32333;55.844;-3.210;2022-07-12T06:39:09;99684.01;;;17.04;100.00
45872;BME280;32333;55.844;-3.210;2022-07-12T06:41:37;99678.35;;;17.18;100.00
45872;BME280;32333;55.844;-3.210;2022-07-12T06:44:36;99679.20;;;17.51;100.00
45872;BME280;32333;55.844;-3.210;2022-07-12T06:47:07;99672.84;;;17.18;100.00
45872;BME280;32333;55.844;-3.210;2022-07-12T06:49:37;99675.92;;;17.51;100.00
45872;BME280;32333;55.844;-3.210;2022-07-12T06:52:05;99672.82;;;17.27;100.00
45872;BME280;32333;55.844;-3.210;2022-07-12T06:54:33;99680.46;;;17.58;100.00
45872;BME280;32333;55.844;-3.210;2022-07-12T06:57:00;99686.70;;;17.67;100.00
45872;BME280;32333;55.844;-3.210;2022-07-12T06:59:27;99690.70;;;17.45;100.00
45872;BME280;32333;55.844;-3.210;2022-07-12T07:01:55;99683.88;;;17.43;100.00
45872;BME280;32333;55.844;-3.210;2022-07-12T07:04:23;99680.75;;;17.15;100.00
45872;BME280;32333;55.844;-3.210;2022-07-12T07:06:51;99675.64;;;16.95;100.00
45872;BME280;32333;55.844;-3.210;2022-07-12T07:09:19;99668.17;;;17.28;100.00
45872;BME280;32333;55.844;-3.210;2022-07-12T07:11:46;99660.75;;;17.58;100.00
45872;BME280;32333;55.844;-3.210;2022-07-12T07:14:36;99649.89;;;17.32;100.00
45872;BME280;32333;55.844;-3.210;2022-07-12T07:17:04;99646.48;;;17.48;100.00
45872;BME280;32333;55.844;-3.210;2022-07-12T07:19:32;99649.80;;;17.99;100.00
45872;BME280;32333;55.844;-3.210;2022-07-12T07:21:59;99645.93;;;17.26;100.00
45872;BME280;32333;55.844;-3.210;2022-07-12T07:24:26;99650.72;;;17.71;100.00
45872;BME280;32333;55.844;-3.210;2022-07-12T07:26:54;99650.76;;;18.03;100.00
45872;BME280;32333;55.844;-3.210;2022-07-12T07:29:22;99648.38;;;17.98;100.00
45872;BME280;32333;55.844;-3.210;2022-07-12T07:31:49;99653.70;;;18.59;100.00
45872;BME280;32333;55.844;-3.210;2022-07-12T07:34:16;99666.87;;;18.56;100.00
45872;BME280;32333;55.844;-3.210;2022-07-12T07:36:45;99666.59;;;18.87;100.00
45872;BME280;32333;55.844;-3.210;2022-07-12T07:39:13;99670.08;;;18.76;100.00
45872;BME280;32333;55.844;-3.210;2022-07-12T07:41:41;99671.13;;;19.99;100.00
45872;BME280;32333;55.844;-3.210;2022-07-12T07:44:35;99679.26;;;19.00;100.00
45872;BME280;32333;55.844;-3.210;2022-07-12T07:47:03;99673.58;;;18.72;100.00
45872;BME280;32333;55.844;-3.210;2022-07-12T07:49:31;99670.90;;;18.17;100.00
45872;BME280;32333;55.844;-3.210;2022-07-12T07:51:58;99678.74;;;18.59;100.00
45872;BME280;32333;55.844;-3.210;2022-07-12T07:54:26;99673.16;;;18.52;100.00
45872;BME280;32333;55.844;-3.210;2022-07-12T07:56:53;99667.86;;;17.95;100.00
45872;BME280;32333;55.844;-3.210;2022-07-12T07:59:21;99665.01;;;18.68;100.00
45872;BME280;32333;55.844;-3.210;2022-07-12T08:01:48;99664.71;;;18.99;100.00
45872;BME280;32333;55.844;-3.210;2022-07-12T08:04:16;99665.68;;;17.87;100.00
45872;BME280;32333;55.844;-3.210;2022-07-12T08:06:46;99671.32;;;17.66;100.00
45872;BME280;32333;55.844;-3.210;2022-07-12T08:09:13;99679.35;;;18.47;100.00
45872;BME280;32333;55.844;-3.210;2022-07-12T08:11:41;99676.40;;;19.53;100.00
45872;BME280;32333;55.844;-3.210;2022-07-12T08:14:36;99679.05;;;19.30;100.00
45872;BME280;32333;55.844;-3.210;2022-07-12T08:17:04;99686.91;;;19.50;100.00
45872;BME280;32333;55.844;-3.210;2022-07-12T08:19:31;99692.54;;;18.48;100.00
45872;BME280;32333;55.844;-3.210;2022-07-12T08:21:59;99699.29;;;17.95;100.00
45872;BME280;32333;55.844;-3.210;2022-07-12T08:24:26;99694.76;;;18.17;100.00
45872;BME280;32333;55.844;-3.210;2022-07-12T08:26:53;99693.72;;;18.37;100.00
45872;BME280;32333;55.844;-3.210;2022-07-12T08:29:21;99683.95;;;18.88;100.00
45872;BME280;32333;55.844;-3.210;2022-07-12T08:31:48;99685.30;;;18.79;100.00
45872;BME280;32333;55.844;-3.210;2022-07-12T08:34:15;99688.90;;;19.24;100.00
45872;BME280;32333;55.844;-3.210;2022-07-12T08:36:42;99689.44;;;19.52;100.00
45872;BME280;32333;55.844;-3.210;2022-07-12T08:39:09;99680.35;;;19.67;100.00
45872;BME280;32333;55.844;-3.210;2022-07-12T08:41:37;99679.22;;;20.23;97.95
45872;BME280;32333;55.844;-3.210;2022-07-12T08:44:35;99671.53;;;20.14;94.33
45872;BME280;32333;55.844;-3.210;2022-07-12T08:47:03;99674.47;;;21.40;93.46
45872;BME280;32333;55.844;-3.210;2022-07-12T08:49:30;99668.28;;;21.68;87.93
45872;BME280;32333;55.844;-3.210;2022-07-12T08:51:58;99677.31;;;21.07;86.96
45872;BME280;32333;55.844;-3.210;2022-07-12T08:54:25;99683.20;;;20.48;89.58
45872;BME280;32333;55.844;-3.210;2022-07-12T08:56:58;99677.38;;;21.12;87.67
45872;BME280;32333;55.844;-3.210;2022-07-12T08:59:26;99684.72;;;21.41;89.14
45872;BME280;32333;55.844;-3.210;2022-07-12T09:01:54;99687.75;;;21.54;86.16
45872;BME280;32333;55.844;-3.210;2022-07-12T09:04:26;99674.93;;;21.62;87.47
45872;BME280;32333;55.844;-3.210;2022-07-12T09:06:54;99673.04;;;21.53;84.01
45872;BME280;32333;55.844;-3.210;2022-07-12T09:09:28;99675.47;;;20.64;87.97
45872;BME280;32333;55.844;-3.210;2022-07-12T09:11:56;99679.21;;;20.62;88.82
45872;BME280;32333;55.844;-3.210;2022-07-12T09:14:35;99683.16;;;20.92;91.27
45872;BME280;32333;55.844;-3.210;2022-07-12T09:17:06;99686.80;;;20.77;90.15
45872;BME280;32333;55.844;-3.210;2022-07-12T09:19:34;99691.93;;;20.89;92.75
45872;BME280;32333;55.844;-3.210;2022-07-12T09:22:03;99684.80;;;19.88;99.64
45872;BME280;32333;55.844;-3.210;2022-07-12T09:24:31;99692.63;;;20.57;93.22
45872;BME280;32333;55.844;-3.210;2022-07-12T09:27:01;99699.29;;;20.53;94.26
45872;BME280;32333;55.844;-3.210;2022-07-12T09:29:31;99689.27;;;20.09;99.09
45872;BME280;32333;55.844;-3.210;2022-07-12T09:32:07;99693.62;;;20.16;97.06
45872;BME280;32333;55.844;-3.210;2022-07-12T09:34:36;99701.49;;;20.02;97.41
45872;BME280;32333;55.844;-3.210;2022-07-12T09:37:03;99696.30;;;21.11;96.35
45872;BME280;32333;55.844;-3.210;2022-07-12T09:39:32;99698.29;;;20.19;100.00
45872;BME280;32333;55.844;-3.210;2022-07-12T09:41:59;99699.94;;;20.04;100.00
45872;BME280;32333;55.844;-3.210;2022-07-12T09:44:36;99700.51;;;20.41;100.00
45872;BME280;32333;55.844;-3.210;2022-07-12T09:47:08;99697.28;;;19.97;100.00
45872;BME280;32333;55.844;-3.210;2022-07-12T09:49:37;99708.56;;;20.13;100.00
45872;BME280;32333;55.844;-3.210;2022-07-12T09:52:06;99694.18;;;19.97;99.03
45872;BME280;32333;55.844;-3.210;2022-07-12T09:54:41;99703.69;;;19.85;96.91
45872;BME280;32333;55.844;-3.210;2022-07-12T09:57:21;99706.46;;;20.30;99.75
45872;BME280;32333;55.844;-3.210;2022-07-12T09:59:49;99701.88;;;20.26;98.34
45872;BME280;32333;55.844;-3.210;2022-07-12T10:02:18;99711.91;;;20.52;97.54
45872;BME280;32333;55.844;-3.210;2022-07-12T10:04:47;99709.21;;;19.86;100.00
45872;BME280;32333;55.844;-3.210;2022-07-12T10:07:15;99709.60;;;20.31;100.00
45872;BME280;32333;55.844;-3.210;2022-07-12T10:09:45;99709.32;;;19.41;100.00
45872;BME280;32333;55.844;-3.210;2022-07-12T10:14:36;99710.36;;;20.27;100.00
45872;BME280;32333;55.844;-3.210;2022-07-12T10:17:07;99712.90;;;20.43;100.00
45872;BME280;32333;55.844;-3.210;2022-07-12T10:19:36;99712.71;;;20.51;100.00
45872;BME280;32333;55.844;-3.210;2022-07-12T10:22:19;99711.89;;;19.79;100.00
45872;BME280;32333;55.844;-3.210;2022-07-12T10:24:51;99709.87;;;20.40;98.88
45872;BME280;32333;55.844;-3.210;2022-07-12T10:27:36;99711.89;;;20.30;100.00
45872;BME280;32333;55.844;-3.210;2022-07-12T10:30:15;99706.70;;;20.45;99.01
45872;BME280;32333;55.844;-3.210;2022-07-12T10:32:46;99700.75;;;19.64;100.00
45872;BME280;32333;55.844;-3.210;2022-07-12T10:35:16;99701.88;;;19.99;100.00
45872;BME280;32333;55.844;-3.210;2022-07-12T10:38:14;99704.81;;;20.02;100.00
45872;BME280;32333;55.844;-3.210;2022-07-12T10:40:43;99696.03;;;19.69;100.00
45872;BME280;32333;55.844;-3.210;2022-07-12T10:44:36;99704.96;;;21.11;98.75
45872;BME280;32333;55.844;-3.210;2022-07-12T10:47:07;99711.17;;;20.38;100.00
45872;BME280;32333;55.844;-3.210;2022-07-12T10:49:35;99708.87;;;20.18;100.00
45872;BME280;32333;55.844;-3.210;2022-07-12T10:52:24;99711.30;;;19.49;100.00
45872;BME280;32333;55.844;-3.210;2022-07-12T10:55:25;99706.84;;;20.70;100.00
45872;BME280;32333;55.844;-3.210;2022-07-12T10:58:03;99705.59;;;20.14;100.00
45872;BME280;32333;55.844;-3.210;2022-07-12T11:00:32;99714.05;;;21.08;96.38
45872;BME280;32333;55.844;-3.210;2022-07-12T11:03:01;99715.18;;;20.43;100.00
45872;BME280;32333;55.844;-3.210;2022-07-12T11:05:30;99713.36;;;20.35;98.29
45872;BME280;32333;55.844;-3.210;2022-07-12T11:07:58;99710.57;;;21.06;95.08
45872;BME280;32333;55.844;-3.210;2022-07-12T11:10:26;99712.00;;;21.40;94.48
45872;BME280;32333;55.844;-3.210;2022-07-12T11:14:35;99708.36;;;21.35;93.55
45872;BME280;32333;55.844;-3.210;2022-07-12T11:17:03;99707.84;;;21.99;89.31
45872;BME280;32333;55.844;-3.210;2022-07-12T11:19:31;99707.44;;;22.39;86.75
45872;BME280;32333;55.844;-3.210;2022-07-12T11:21:58;99705.76;;;22.00;90.90
45872;BME280;32333;55.844;-3.210;2022-07-12T11:24:28;99710.12;;;21.51;92.41
45872;BME280;32333;55.844;-3.210;2022-07-12T11:26:57;99706.92;;;21.34;92.52
45872;BME280;32333;55.844;-3.210;2022-07-12T11:29:26;99714.54;;;21.35;93.55
45872;BME280;32333;55.844;-3.210;2022-07-12T11:32:00;99705.24;;;22.19;91.51
45872;BME280;32333;55.844;-3.210;2022-07-12T11:34:28;99700.23;;;21.69;91.57
45872;BME280;32333;55.844;-3.210;2022-07-12T11:36:58;99702.06;;;21.76;89.18
45872;BME280;32333;55.844;-3.210;2022-07-12T11:39:31;99694.03;;;22.02;88.92
45872;BME280;32333;55.844;-3.210;2022-07-12T11:44:44;99704.43;;;22.10;87.34
45872;BME280;32333;55.844;-3.210;2022-07-12T11:47:14;99704.41;;;22.87;84.46
45872;BME280;32333;55.844;-3.210;2022-07-12T11:49:46;99715.45;;;22.84;82.85
45872;BME280;32333;55.844;-3.210;2022-07-12T11:52:15;99720.19;;;22.74;81.21
45872;BME280;32333;55.844;-3.210;2022-07-12T11:54:43;99720.07;;;23.15;80.99
45872;BME280;32333;55.844;-3.210;2022-07-12T11:57:12;99715.84;;;23.16;79.30
45872;BME280;32333;55.844;-3.210;2022-07-12T11:59:41;99724.42;;;22.92;79.67
45872;BME280;32333;55.844;-3.210;2022-07-12T12:02:11;99715.17;;;22.34;83.17
45872;BME280;32333;55.844;-3.210;2022-07-12T12:04:48;99717.91;;;22.38;83.81
45872;BME280;32333;55.844;-3.210;2022-07-12T12:07:20;99719.64;;;22.02;84.63
45872;BME280;32333;55.844;-3.210;2022-07-12T12:10:05;99715.05;;;22.42;84.88
45872;BME280;32333;55.844;-3.210;2022-07-12T12:14:36;99716.42;;;22.92;85.23
45872;BME280;32333;55.844;-3.210;2022-07-12T12:17:11;99715.38;;;22.99;82.73
45872;BME280;32333;55.844;-3.210;2022-07-12T12:19:41;99714.11;;;23.23;81.98
45872;BME280;32333;55.844;-3.210;2022-07-12T12:22:27;99716.65;;;23.81;78.73
45872;BME280;32333;55.844;-3.210;2022-07-12T12:24:59;99711.33;;;21.39;86.41
45872;BME280;32333;55.844;-3.210;2022-07-12T12:27:27;99715.97;;;22.16;80.27
45872;BME280;32333;55.844;-3.210;2022-07-12T12:29:58;99722.48;;;22.45;80.71
45872;BME280;32333;55.844;-3.210;2022-07-12T12:32:26;99726.29;;;23.10;78.24
45872;BME280;32333;55.844;-3.210;2022-07-12T12:35:11;99724.30;;;22.61;79.17
45872;BME280;32333;55.844;-3.210;2022-07-12T12:37:39;99726.13;;;22.10;83.08
45872;BME280;32333;55.844;-3.210;2022-07-12T12:40:07;99728.63;;;22.58;80.59
45872;BME280;32333;55.844;-3.210;2022-07-12T12:44:35;99727.88;;;22.34;82.77
45872;BME280;32333;55.844;-3.210;2022-07-12T12:47:07;99742.46;;;22.18;85.23
45872;BME280;32333;55.844;-3.210;2022-07-12T12:49:44;99744.72;;;21.07;88.69
45872;BME280;32333;55.844;-3.210;2022-07-12T12:52:12;99745.70;;;21.16;88.76
45872;BME280;32333;55.844;-3.210;2022-07-12T12:54:40;99742.70;;;21.30;87.94
45872;BME280;32333;55.844;-3.210;2022-07-12T12:57:08;99744.45;;;22.01;85.00
45872;BME280;32333;55.844;-3.210;2022-07-12T12:59:36;99751.09;;;21.06;89.58
45872;BME280;32333;55.844;-3.210;2022-07-12T13:02:07;99746.20;;;19.86;92.81
45872;BME280;32333;55.844;-3.210;2022-07-12T13:04:37;99748.64;;;20.92;90.22
45872;BME280;32333;55.844;-3.210;2022-07-12T13:07:06;99743.42;;;20.00;97.63
45872;BME280;32333;55.844;-3.210;2022-07-12T13:09:34;99752.64;;;20.76;94.49
45872;BME280;32333;55.844;-3.210;2022-07-12T13:14:35;99756.35;;;19.41;98.59
45872;BME280;32333;55.844;-3.210;2022-07-12T13:17:03;99746.49;;;19.37;100.00
45872;BME280;32333;55.844;-3.210;2022-07-12T13:19:31;99748.97;;;19.84;100.00